Time;durP1;ratioP1;P1;durP2;ratioP2;P2;SDS_P1;SDS_P2;PMS_P1;PMS_P2;Temp;Humidity;BMP_temperature;BMP_pressure;BME280_temperature;BME280_humidity;BME280_pressure;Samples;Min_cycle;Max_cycle;Signal;HPM_P1;HPM_P2
2022/03/13 00:01:02;;;;;;;5.28;3.03;;;10.60;99.90;;;;;;5071021;28;20028;-51
2022/03/13 00:03:29;;;;;;;5.07;3.60;;;10.60;99.90;;;;;;5069773;28;20496;-50
2022/03/13 00:05:54;;;;;;;4.63;3.15;;;10.60;99.90;;;;;;5069254;28;20035;-50
2022/03/13 00:08:30;;;;;;;4.72;3.42;;;10.50;99.90;;;;;;5070934;28;20131;-50
2022/03/13 00:11:17;;;;;;;3.83;3.42;;;10.50;99.90;;;;;;5071013;28;20032;-50
2022/03/13 00:13:51;;;;;;;4.43;4.03;;;10.50;99.90;;;;;;5070581;28;20062;-51
2022/03/13 00:16:17;;;;;;;6.40;3.90;;;10.40;99.90;;;;;;5069445;28;20028;-51
2022/03/13 00:18:47;;;;;;;5.57;3.50;;;10.40;99.90;;;;;;5070824;28;20032;-51
2022/03/13 00:21:14;;;;;;;4.38;3.95;;;10.40;99.90;;;;;;5070707;28;20501;-50
2022/03/13 00:23:41;;;;;;;5.40;3.30;;;10.40;99.90;;;;;;5070254;28;20016;-50
2022/03/13 00:26:07;;;;;;;4.18;3.10;;;10.40;99.90;;;;;;5070687;28;20032;-51
2022/03/13 00:28:32;;;;;;;5.60;4.28;;;10.40;99.90;;;;;;5070925;28;20420;-51
2022/03/13 00:30:58;;;;;;;5.40;3.50;;;10.40;99.90;;;;;;5070372;28;20020;-50
2022/03/13 00:33:25;;;;;;;5.28;4.00;;;10.40;99.90;;;;;;5070482;28;20543;-50
2022/03/13 00:35:51;;;;;;;4.40;3.80;;;10.40;99.90;;;;;;5070580;28;20064;-50
2022/03/13 00:38:19;;;;;;;4.28;3.13;;;10.40;99.90;;;;;;5070425;28;20044;-50
2022/03/13 00:40:51;;;;;;;6.45;4.40;;;10.40;99.90;;;;;;5074115;28;20040;-49
2022/03/13 00:43:17;;;;;;;4.95;4.30;;;10.40;99.90;;;;;;5074601;28;20070;-50
2022/03/13 00:45:43;;;;;;;5.72;3.85;;;10.50;99.90;;;;;;5074749;28;20029;-50
2022/03/13 00:48:08;;;;;;;4.78;3.97;;;10.50;99.90;;;;;;5074885;28;20017;-50
2022/03/13 00:50:34;;;;;;;4.50;3.90;;;10.50;99.90;;;;;;5074707;28;20040;-50
2022/03/13 00:53:00;;;;;;;5.47;3.75;;;10.50;99.90;;;;;;5074631;28;20024;-50
2022/03/13 00:55:26;;;;;;;5.72;4.07;;;10.50;99.90;;;;;;5074213;28;20016;-50
2022/03/13 00:57:51;;;;;;;5.65;4.15;;;10.50;99.90;;;;;;5074393;28;20073;-50
2022/03/13 01:00:17;;;;;;;7.00;4.47;;;10.50;99.90;;;;;;5074489;28;20032;-51
2022/03/13 01:02:43;;;;;;;5.03;4.10;;;10.40;99.90;;;;;;5074210;28;20036;-50
2022/03/13 01:05:10;;;;;;;5.03;3.55;;;10.40;99.90;;;;;;5074446;28;20024;-50
2022/03/13 01:07:37;;;;;;;5.07;4.40;;;10.50;99.90;;;;;;5074184;28;20033;-51
2022/03/13 01:10:06;;;;;;;8.07;5.00;;;10.50;99.90;;;;;;5074278;28;20033;-50
2022/03/13 01:12:33;;;;;;;6.03;4.20;;;10.50;99.90;;;;;;5075104;28;20036;-50
2022/03/13 01:14:58;;;;;;;5.47;4.30;;;10.50;99.90;;;;;;5074445;28;20142;-50
2022/03/13 01:17:25;;;;;;;6.28;4.57;;;10.50;99.90;;;;;;5074938;28;20032;-50
2022/03/13 01:19:51;;;;;;;8.10;4.63;;;10.50;99.90;;;;;;5073914;28;20056;-50
2022/03/13 01:22:17;;;;;;;6.22;4.43;;;10.50;99.90;;;;;;5074339;28;20040;-50
2022/03/13 01:24:44;;;;;;;5.85;4.38;;;10.40;99.90;;;;;;5074722;28;20021;-50
2022/03/13 01:27:14;;;;;;;6.13;4.32;;;10.50;99.90;;;;;;5074273;28;20023;-50
2022/03/13 01:29:41;;;;;;;6.47;4.60;;;10.50;99.90;;;;;;5073846;28;20082;-50
2022/03/13 01:32:09;;;;;;;5.22;4.50;;;10.50;99.90;;;;;;5073972;28;20504;-50
2022/03/13 01:34:35;;;;;;;7.88;5.00;;;10.40;99.90;;;;;;5074268;28;20497;-51
2022/03/13 01:37:02;;;;;;;6.63;4.88;;;10.40;99.90;;;;;;5074513;28;20024;-51
2022/03/13 01:39:29;;;;;;;6.68;4.85;;;10.40;99.90;;;;;;5074526;28;20028;-51
2022/03/13 01:41:55;;;;;;;5.93;4.63;;;10.40;99.90;;;;;;5074732;28;20052;-51
2022/03/13 01:44:21;;;;;;;6.63;5.07;;;10.40;99.90;;;;;;5074119;28;20049;-51
2022/03/13 01:46:47;;;;;;;6.13;5.05;;;10.40;99.90;;;;;;5073992;28;20060;-51
2022/03/13 01:49:13;;;;;;;6.60;4.70;;;10.40;99.90;;;;;;5073216;28;20119;-51
2022/03/13 01:51:38;;;;;;;5.10;4.32;;;10.30;99.90;;;;;;5073744;28;20111;-51
2022/03/13 01:54:11;;;;;;;7.85;4.50;;;10.30;99.90;;;;;;5073659;28;20518;-51
2022/03/13 01:56:37;;;;;;;6.15;5.07;;;10.40;99.90;;;;;;5074109;28;20073;-51
2022/03/13 01:59:06;;;;;;;6.32;4.75;;;10.30;99.90;;;;;;5073828;28;20033;-51
2022/03/13 02:01:32;;;;;;;7.22;4.40;;;10.30;99.90;;;;;;5073838;28;20024;-51
2022/03/13 02:03:57;;;;;;;6.35;5.32;;;10.30;99.90;;;;;;5072007;28;20040;-51
2022/03/13 02:06:24;;;;;;;7.32;6.05;;;10.20;99.90;;;;;;5072660;28;20083;-51
2022/03/13 02:08:50;;;;;;;6.22;5.07;;;10.20;99.90;;;;;;5073554;28;20012;-51
2022/03/13 02:11:19;;;;;;;6.70;5.38;;;10.20;99.90;;;;;;5072622;28;20155;-51
2022/03/13 02:13:47;;;;;;;10.05;6.15;;;10.20;99.90;;;;;;5072738;28;20038;-51
2022/03/13 02:16:14;;;;;;;7.88;5.95;;;10.10;99.90;;;;;;5072742;28;20021;-51
2022/03/13 02:18:41;;;;;;;8.27;5.60;;;10.10;99.90;;;;;;5071429;28;20110;-51
2022/03/13 02:21:08;;;;;;;7.88;5.60;;;10.10;99.90;;;;;;5072208;28;20021;-51
2022/03/13 02:23:34;;;;;;;7.47;5.70;;;10.00;99.90;;;;;;5072847;28;20056;-51
2022/03/13 02:26:02;;;;;;;8.20;6.00;;;10.00;99.90;;;;;;5073184;28;20110;-51
2022/03/13 02:28:37;;;;;;;8.30;6.18;;;10.00;99.90;;;;;;5073593;28;20017;-51
2022/03/13 02:31:05;;;;;;;8.80;6.20;;;10.00;99.90;;;;;;5071512;28;20029;-51
2022/03/13 02:33:31;;;;;;;9.35;6.10;;;9.80;99.90;;;;;;5073088;28;20068;-51
2022/03/13 02:36:01;;;;;;;7.32;5.63;;;9.80;99.90;;;;;;5072513;28;20393;-51
2022/03/13 02:38:31;;;;;;;8.90;6.55;;;9.90;99.90;;;;;;5073302;28;20029;-51
2022/03/13 02:40:58;;;;;;;10.00;6.20;;;9.90;99.90;;;;;;5072289;28;20056;-51
2022/03/13 02:43:24;;;;;;;7.57;5.30;;;9.90;99.90;;;;;;5072467;28;20560;-51
2022/03/13 02:45:52;;;;;;;8.75;6.43;;;9.90;99.90;;;;;;5072502;28;20424;-50
2022/03/13 02:48:19;;;;;;;7.07;5.28;;;9.90;99.90;;;;;;5072549;28;20027;-51
2022/03/13 02:50:45;;;;;;;8.07;6.20;;;9.90;99.90;;;;;;5072148;28;20393;-51
2022/03/13 02:53:12;;;;;;;10.30;6.25;;;9.90;99.90;;;;;;5071077;28;20025;-51
2022/03/13 02:55:38;;;;;;;9.73;6.70;;;9.90;99.90;;;;;;5072112;28;20025;-51
2022/03/13 02:58:04;;;;;;;8.02;5.93;;;9.70;99.90;;;;;;5072144;28;20526;-51
2022/03/13 03:00:48;;;;;;;10.05;6.65;;;9.60;99.90;;;;;;5071943;28;20017;-51
2022/03/13 03:03:19;;;;;;;12.88;7.78;;;9.50;99.90;;;;;;5071680;28;20505;-51
2022/03/13 03:05:46;;;;;;;8.98;7.28;;;9.40;99.90;;;;;;5070532;28;20024;-51
2022/03/13 03:08:12;;;;;;;12.70;6.85;;;9.50;99.90;;;;;;5071943;28;20119;-51
2022/03/13 03:10:38;;;;;;;10.45;7.45;;;9.50;99.90;;;;;;5070223;28;20033;-51
2022/03/13 03:13:05;;;;;;;10.18;7.18;;;9.50;99.90;;;;;;5071630;28;20021;-51
2022/03/13 03:15:31;;;;;;;8.48;6.35;;;9.60;99.90;;;;;;5071496;28;20028;-51
2022/03/13 03:17:57;;;;;;;9.40;7.03;;;9.60;99.90;;;;;;5071671;28;20032;-51
2022/03/13 03:20:23;;;;;;;10.43;7.47;;;9.70;99.90;;;;;;5071473;28;20029;-51
2022/03/13 03:22:51;;;;;;;11.25;7.32;;;9.70;99.90;;;;;;5071332;28;20043;-51
2022/03/13 03:25:22;;;;;;;10.18;7.05;;;9.70;99.90;;;;;;5072084;28;20024;-50
2022/03/13 03:27:49;;;;;;;11.07;7.20;;;9.70;99.90;;;;;;5072045;28;20028;-50
2022/03/13 03:30:22;;;;;;;9.77;7.28;;;9.80;99.90;;;;;;5071526;28;20028;-50
2022/03/13 03:32:49;;;;;;;9.80;7.60;;;9.80;99.90;;;;;;5071599;28;20020;-50
2022/03/13 03:35:19;;;;;;;8.88;6.85;;;9.80;99.90;;;;;;5070625;28;20028;-50
2022/03/13 03:37:46;;;;;;;11.20;8.00;;;9.80;99.90;;;;;;5072286;28;20033;-50
2022/03/13 03:40:11;;;;;;;9.82;7.50;;;9.80;99.90;;;;;;5071690;28;20086;-50
2022/03/13 03:42:37;;;;;;;11.25;8.02;;;9.80;99.90;;;;;;5071568;28;20020;-50
2022/03/13 03:45:04;;;;;;;11.77;7.93;;;9.80;99.90;;;;;;5071649;28;20025;-50
2022/03/13 03:47:30;;;;;;;9.85;7.55;;;9.90;99.90;;;;;;5071945;28;20021;-50
2022/03/13 03:49:56;;;;;;;9.98;7.40;;;9.90;99.90;;;;;;5071624;28;20024;-50
2022/03/13 03:52:22;;;;;;;8.70;5.75;;;9.90;99.90;;;;;;5071321;28;20154;-50
2022/03/13 03:54:47;;;;;;;9.65;7.70;;;9.90;99.90;;;;;;5071340;28;20366;-50
2022/03/13 03:57:13;;;;;;;9.57;7.20;;;9.90;99.90;;;;;;5071212;28;20074;-50
2022/03/13 03:59:39;;;;;;;9.10;7.00;;;9.90;99.90;;;;;;5070918;28;20024;-50
2022/03/13 04:02:05;;;;;;;10.27;7.38;;;10.00;99.90;;;;;;5070918;28;20405;-50
2022/03/13 04:04:30;;;;;;;9.98;7.30;;;10.00;99.90;;;;;;5071234;28;20063;-50
2022/03/13 04:06:56;;;;;;;10.82;7.97;;;10.00;99.90;;;;;;5071252;28;20059;-50
2022/03/13 04:09:22;;;;;;;9.13;6.78;;;9.90;99.90;;;;;;5071144;28;20032;-50
2022/03/13 04:11:47;;;;;;;9.80;7.13;;;9.90;99.90;;;;;;5071723;28;20027;-50
2022/03/13 04:14:14;;;;;;;10.27;7.20;;;9.90;99.90;;;;;;5085622;28;20031;-50
2022/03/13 04:16:41;;;;;;;9.75;7.30;;;9.90;99.90;;;;;;5070737;28;20025;-50
2022/03/13 04:19:09;;;;;;;8.23;5.78;;;9.80;99.90;;;;;;5071041;28;20032;-50
2022/03/13 04:21:39;;;;;;;9.70;6.68;;;9.80;99.90;;;;;;5070952;28;20544;-50
2022/03/13 04:24:06;;;;;;;10.25;7.30;;;9.80;99.90;;;;;;5071227;28;20036;-50
2022/03/13 04:26:32;;;;;;;9.70;6.68;;;9.80;99.90;;;;;;5070875;28;20486;-50
2022/03/13 04:28:58;;;;;;;8.45;6.28;;;9.80;99.90;;;;;;5071005;28;20024;-50
2022/03/13 04:31:24;;;;;;;11.38;6.88;;;9.80;99.90;;;;;;5070827;28;20028;-50
2022/03/13 04:33:50;;;;;;;10.48;7.35;;;9.80;99.90;;;;;;5071332;28;20482;-50
2022/03/13 04:36:23;;;;;;;9.05;6.78;;;9.80;99.90;;;;;;5070507;28;20111;-50
2022/03/13 04:38:49;;;;;;;8.70;7.13;;;9.80;99.90;;;;;;5070595;28;20020;-50
2022/03/13 04:41:14;;;;;;;10.02;6.75;;;9.80;99.90;;;;;;5070595;28;20036;-50
2022/03/13 04:43:40;;;;;;;11.18;7.85;;;9.80;99.90;;;;;;5070577;28;20107;-50
2022/03/13 04:46:06;;;;;;;10.18;7.70;;;9.70;99.90;;;;;;5086019;28;20074;-50
2022/03/13 04:48:32;;;;;;;11.15;7.88;;;9.70;99.90;;;;;;5070670;28;20501;-50
2022/03/13 04:50:59;;;;;;;10.50;7.25;;;9.70;99.90;;;;;;5070220;28;20431;-50
2022/03/13 04:53:25;;;;;;;11.90;9.48;;;9.70;99.90;;;;;;5070275;28;20059;-50
2022/03/13 04:55:54;;;;;;;12.43;9.05;;;9.70;99.90;;;;;;5071019;28;20359;-50
2022/03/13 04:58:20;;;;;;;9.95;7.85;;;9.60;99.90;;;;;;5071030;28;20090;-50
2022/03/13 05:00:47;;;;;;;10.35;8.18;;;9.60;99.90;;;;;;5071094;28;20424;-50
2022/03/13 05:03:14;;;;;;;11.48;8.70;;;9.50;99.90;;;;;;5070661;28;20078;-51
2022/03/13 05:05:40;;;;;;;9.98;7.70;;;9.50;99.90;;;;;;5086331;28;20381;-50
2022/03/13 05:08:15;;;;;;;10.98;7.97;;;9.50;99.90;;;;;;5070438;28;20045;-50
2022/03/13 05:10:43;;;;;;;10.95;8.23;;;9.40;99.90;;;;;;5086646;28;20021;-50
2022/03/13 05:13:11;;;;;;;10.85;8.00;;;9.50;99.90;;;;;;5071309;28;20032;-50
2022/03/13 05:15:37;;;;;;;11.50;8.20;;;9.50;99.90;;;;;;5071512;28;20028;-50
2022/03/13 05:18:03;;;;;;;13.18;8.88;;;9.50;99.90;;;;;;5071266;28;20024;-51
2022/03/13 05:20:31;;;;;;;10.07;7.97;;;9.50;99.90;;;;;;5070076;28;20501;-50
2022/03/13 05:22:57;;;;;;;11.32;8.02;;;9.50;99.90;;;;;;5068660;28;20447;-50
2022/03/13 05:25:23;;;;;;;10.00;7.90;;;9.50;99.90;;;;;;5070931;28;20055;-51
2022/03/13 05:27:50;;;;;;;11.75;8.90;;;9.50;99.90;;;;;;5073698;28;20025;-50
2022/03/13 05:30:17;;;;;;;10.82;8.50;;;9.50;99.90;;;;;;5088840;28;20036;-50
2022/03/13 05:32:42;;;;;;;10.57;8.70;;;9.50;99.90;;;;;;5073393;28;20025;-51
2022/03/13 05:35:10;;;;;;;11.60;9.05;;;9.40;99.90;;;;;;5073373;28;20031;-50
2022/03/13 05:37:36;;;;;;;13.35;9.45;;;9.40;99.90;;;;;;5073666;28;20445;-50
2022/03/13 05:40:03;;;;;;;11.63;8.00;;;9.40;99.90;;;;;;5073701;28;20181;-50
2022/03/13 05:42:29;;;;;;;12.52;8.93;;;9.40;99.90;;;;;;5074226;28;20021;-51
2022/03/13 05:44:54;;;;;;;12.05;9.38;;;9.50;99.90;;;;;;5073852;28;20040;-51
2022/03/13 05:47:21;;;;;;;13.85;9.88;;;9.50;99.90;;;;;;5073071;28;20025;-51
2022/03/13 05:49:47;;;;;;;13.80;9.43;;;9.50;99.90;;;;;;5072759;28;20028;-50
2022/03/13 05:52:14;;;;;;;12.65;9.70;;;9.50;99.90;;;;;;5073365;28;20297;-50
2022/03/13 05:54:41;;;;;;;13.70;9.18;;;9.50;99.90;;;;;;5073150;28;20032;-51
2022/03/13 05:57:08;;;;;;;13.95;10.20;;;9.50;99.90;;;;;;5073419;28;20103;-50
2022/03/13 05:59:35;;;;;;;15.45;10.63;;;9.60;99.90;;;;;;5072892;28;20546;-50
2022/03/13 06:02:04;;;;;;;16.73;10.98;;;9.50;99.90;;;;;;5073465;28;20040;-50
2022/03/13 06:04:32;;;;;;;18.25;11.52;;;9.50;99.90;;;;;;5073480;28;20016;-50
2022/03/13 06:07:01;;;;;;;16.80;11.18;;;9.50;99.90;;;;;;5072929;28;20071;-50
2022/03/13 06:09:26;;;;;;;15.48;11.32;;;9.50;99.90;;;;;;5072901;28;20025;-51
2022/03/13 06:11:52;;;;;;;14.98;10.90;;;9.50;99.90;;;;;;5073271;28;20516;-50
2022/03/13 06:14:18;;;;;;;16.90;11.48;;;9.50;99.90;;;;;;5074171;28;20024;-50
2022/03/13 06:16:44;;;;;;;16.48;11.02;;;9.50;99.90;;;;;;5073765;28;20056;-50
2022/03/13 06:19:10;;;;;;;17.70;11.95;;;9.50;99.90;;;;;;5072607;28;20030;-50
2022/03/13 06:21:41;;;;;;;15.82;11.60;;;9.50;99.90;;;;;;5072346;28;20036;-51
2022/03/13 06:24:07;;;;;;;17.50;11.88;;;9.50;99.90;;;;;;5073657;28;20541;-51
2022/03/13 06:26:34;;;;;;;18.65;12.30;;;9.40;99.90;;;;;;5072655;28;20021;-51
2022/03/13 06:29:00;;;;;;;18.50;12.20;;;9.40;99.90;;;;;;5072804;28;20028;-50
2022/03/13 06:31:26;;;;;;;20.15;13.88;;;9.30;99.90;;;;;;5071902;28;20087;-51
2022/03/13 06:33:52;;;;;;;19.10;12.40;;;9.30;99.90;;;;;;5071998;28;20236;-50
2022/03/13 06:36:17;;;;;;;20.80;12.85;;;9.30;99.90;;;;;;5071040;28;20393;-50
2022/03/13 06:38:43;;;;;;;19.23;12.80;;;9.30;99.90;;;;;;5072148;28;20032;-50
2022/03/13 06:41:09;;;;;;;18.55;13.32;;;9.30;99.90;;;;;;5071781;28;20504;-50
2022/03/13 06:43:34;;;;;;;18.33;12.38;;;9.30;99.90;;;;;;5072106;28;20024;-50
2022/03/13 06:46:03;;;;;;;21.48;13.70;;;9.30;99.90;;;;;;5071730;28;20020;-50
2022/03/13 06:48:31;;;;;;;19.15;13.45;;;9.30;99.90;;;;;;5072694;28;20074;-50
2022/03/13 06:50:59;;;;;;;20.13;13.63;;;9.40;99.90;;;;;;5071745;28;20482;-50
2022/03/13 06:53:25;;;;;;;22.05;13.65;;;9.40;99.90;;;;;;5071739;28;20036;-50
2022/03/13 06:55:52;;;;;;;22.55;14.23;;;9.40;99.90;;;;;;5072159;28;20020;-50
2022/03/13 06:58:18;;;;;;;20.02;13.23;;;9.40;99.90;;;;;;5073228;28;20115;-50
2022/03/13 07:00:44;;;;;;;18.27;13.13;;;9.40;99.90;;;;;;5072013;28;20063;-50
2022/03/13 07:03:11;;;;;;;21.52;13.82;;;9.50;99.90;;;;;;5072529;28;20601;-51
2022/03/13 07:05:36;;;;;;;22.88;14.77;;;9.50;99.90;;;;;;5072223;28;20027;-50
2022/03/13 07:08:02;;;;;;;19.42;14.00;;;9.50;99.90;;;;;;5072870;28;20109;-50
2022/03/13 07:10:28;;;;;;;21.23;14.52;;;9.60;99.90;;;;;;5072881;28;20029;-50
2022/03/13 07:12:55;;;;;;;19.70;13.13;;;9.70;99.90;;;;;;5072464;28;20375;-50
2022/03/13 07:15:22;;;;;;;20.27;13.85;;;9.80;99.90;;;;;;5072308;28;20481;-51
2022/03/13 07:17:48;;;;;;;21.38;14.75;;;9.90;99.90;;;;;;5072715;28;20493;-50
2022/03/13 07:20:15;;;;;;;20.33;14.30;;;10.00;99.90;;;;;;5072324;28;20036;-50
2022/03/13 07:22:42;;;;;;;22.75;14.48;;;10.10;99.90;;;;;;5072611;28;20027;-50
2022/03/13 07:25:09;;;;;;;21.23;14.63;;;10.20;99.90;;;;;;5072167;28;20031;-50
2022/03/13 07:27:36;;;;;;;19.33;13.18;;;10.20;99.90;;;;;;5072374;28;20036;-51
2022/03/13 07:30:03;;;;;;;20.35;13.80;;;10.20;99.90;;;;;;5074311;28;20036;-51
2022/03/13 07:32:28;;;;;;;18.98;13.45;;;10.30;99.90;;;;;;5072096;28;20386;-50
2022/03/13 07:34:54;;;;;;;22.50;14.23;;;10.30;99.90;;;;;;5071717;28;20024;-50
2022/03/13 07:37:19;;;;;;;18.77;12.57;;;10.30;99.90;;;;;;5071787;28;20443;-50
2022/03/13 07:39:48;;;;;;;21.52;14.50;;;10.30;99.90;;;;;;5071689;28;20104;-50
2022/03/13 07:42:15;;;;;;;20.33;13.45;;;10.30;99.90;;;;;;5071512;28;20103;-50
2022/03/13 07:44:41;;;;;;;20.55;13.82;;;10.40;99.90;;;;;;5073458;28;20505;-50
2022/03/13 07:47:07;;;;;;;23.42;14.82;;;10.50;99.90;;;;;;5073032;28;20020;-50
2022/03/13 07:49:32;;;;;;;20.67;13.32;;;10.50;99.90;;;;;;5072497;28;20032;-51
2022/03/13 07:51:58;;;;;;;23.02;14.52;;;10.60;99.90;;;;;;5072937;28;20040;-51
2022/03/13 07:54:23;;;;;;;23.00;14.00;;;10.70;99.90;;;;;;5072984;28;20032;-51
2022/03/13 07:56:49;;;;;;;20.02;13.55;;;10.90;99.90;;;;;;5071271;28;20033;-51
2022/03/13 07:59:15;;;;;;;18.58;13.77;;;10.90;99.90;;;;;;5071342;28;20063;-51
2022/03/13 08:01:41;;;;;;;20.25;13.85;;;10.90;99.90;;;;;;5070059;28;20505;-51
2022/03/13 08:04:06;;;;;;;17.58;12.13;;;11.00;99.90;;;;;;5071641;28;20024;-51
2022/03/13 08:06:34;;;;;;;22.95;12.50;;;11.10;99.90;;;;;;5071135;28;20170;-51
2022/03/13 08:09:04;;;;;;;18.80;13.13;;;11.20;99.90;;;;;;5071116;28;20460;-51
2022/03/13 08:11:30;;;;;;;14.43;10.38;;;11.30;99.90;;;;;;5069119;28;20040;-51
2022/03/13 08:13:56;;;;;;;17.27;11.48;;;11.40;99.90;;;;;;5070208;28;20489;-50
2022/03/13 08:16:21;;;;;;;16.60;11.73;;;11.80;99.90;;;;;;5070325;28;20034;-50
2022/03/13 08:18:47;;;;;;;15.45;11.25;;;12.40;99.90;;;;;;5070574;28;20082;-50
2022/03/13 08:21:13;;;;;;;14.02;10.80;;;13.10;99.90;;;;;;5070468;28;20032;-51
2022/03/13 08:23:39;;;;;;;13.93;10.75;;;13.60;99.90;;;;;;5071580;28;20024;-52
2022/03/13 08:26:05;;;;;;;13.25;10.18;;;14.10;99.90;;;;;;5071438;28;20016;-51
2022/03/13 08:28:32;;;;;;;12.32;9.25;;;14.30;99.90;;;;;;5070921;28;20228;-51
2022/03/13 08:30:58;;;;;;;12.02;9.10;;;14.30;99.90;;;;;;5070621;28;20024;-51
2022/03/13 08:33:24;;;;;;;13.55;9.10;;;14.40;99.90;;;;;;5070595;28;20058;-51
2022/03/13 08:35:50;;;;;;;13.40;9.25;;;14.80;99.90;;;;;;5070639;28;20401;-51
2022/03/13 08:38:16;;;;;;;12.48;8.25;;;15.00;99.90;;;;;;5070650;28;20068;-51
2022/03/13 08:40:41;;;;;;;11.20;8.43;;;14.60;99.90;;;;;;5086131;28;20062;-51
2022/03/13 08:43:07;;;;;;;10.57;8.30;;;14.20;99.90;;;;;;5070746;28;20020;-52
2022/03/13 08:45:33;;;;;;;11.23;8.07;;;14.40;99.90;;;;;;5070324;28;20394;-52
2022/03/13 08:47:58;;;;;;;11.20;8.10;;;14.80;99.90;;;;;;5071486;28;20032;-52
2022/03/13 08:50:24;;;;;;;9.73;8.35;;;14.80;99.90;;;;;;5070716;28;20025;-51
2022/03/13 08:52:50;;;;;;;13.30;8.13;;;14.60;99.90;;;;;;5069636;28;20483;-52
2022/03/13 08:55:18;;;;;;;10.95;8.75;;;14.90;99.90;;;;;;5070678;28;20382;-52
2022/03/13 08:57:45;;;;;;;10.60;7.65;;;14.90;99.90;;;;;;5069092;28;20046;-52
2022/03/13 09:00:16;;;;;;;9.32;7.35;;;14.90;99.90;;;;;;5071597;28;20448;-52
2022/03/13 09:02:43;;;;;;;9.77;7.20;;;15.10;99.90;;;;;;5074073;28;20091;-51
2022/03/13 09:05:09;;;;;;;10.65;7.85;;;15.20;99.90;;;;;;5073721;28;20393;-51
2022/03/13 09:07:36;;;;;;;10.35;7.93;;;15.00;99.90;;;;;;5074164;28;20052;-52
2022/03/13 09:10:03;;;;;;;12.30;7.55;;;15.20;99.90;;;;;;5073197;28;20024;-52
2022/03/13 09:12:32;;;;;;;10.85;7.85;;;15.10;99.90;;;;;;5074266;28;20031;-52
2022/03/13 09:14:59;;;;;;;9.30;7.00;;;15.20;99.90;;;;;;5074156;28;20034;-52
2022/03/13 09:17:25;;;;;;;7.72;6.63;;;15.30;99.90;;;;;;5090281;28;20025;-52
2022/03/13 09:19:51;;;;;;;7.40;6.07;;;15.70;99.90;;;;;;5075631;28;20044;-52
2022/03/13 09:22:18;;;;;;;12.40;7.13;;;15.80;99.90;;;;;;5076901;28;20020;-52
2022/03/13 09:24:45;;;;;;;8.82;6.68;;;15.80;99.90;;;;;;5075153;28;20542;-51
2022/03/13 09:27:11;;;;;;;8.48;7.00;;;15.70;99.90;;;;;;5074248;28;20517;-51
2022/03/13 09:29:37;;;;;;;6.93;5.40;;;15.80;99.90;;;;;;5073768;28;20115;-51
2022/03/13 09:32:04;;;;;;;7.93;6.28;;;15.50;99.90;;;;;;5074078;28;20104;-51
2022/03/13 09:34:31;;;;;;;8.07;6.35;;;15.70;99.90;;;;;;5074150;28;20056;-51
2022/03/13 09:36:57;;;;;;;7.93;6.13;;;15.70;99.90;;;;;;5074582;28;20533;-51
2022/03/13 09:39:23;;;;;;;7.88;6.15;;;15.70;99.90;;;;;;5074039;28;20417;-51
2022/03/13 09:41:49;;;;;;;7.28;5.60;;;15.80;99.90;;;;;;5074412;28;20027;-51
2022/03/13 09:44:15;;;;;;;7.97;5.53;;;16.20;99.90;;;;;;5073826;28;20038;-52
2022/03/13 09:46:41;;;;;;;6.18;4.78;;;16.50;99.90;;;;;;5073647;28;20139;-52
2022/03/13 09:49:06;;;;;;;7.32;5.80;;;16.40;99.90;;;;;;5073848;28;20124;-51
2022/03/13 09:51:32;;;;;;;6.53;5.20;;;16.50;99.90;;;;;;5074084;28;20108;-51
2022/03/13 09:53:58;;;;;;;6.22;4.80;;;16.10;99.80;;;;;;5072063;28;20027;-51
2022/03/13 09:56:24;;;;;;;5.78;4.65;;;16.10;99.90;;;;;;5073218;28;20016;-51
2022/03/13 09:58:50;;;;;;;6.70;5.22;;;16.10;99.90;;;;;;5073580;28;20478;-51
2022/03/13 10:01:16;;;;;;;6.78;5.40;;;16.00;99.90;;;;;;5072878;28;20025;-52
2022/03/13 10:03:42;;;;;;;6.38;5.15;;;15.80;99.90;;;;;;5073066;28;20350;-51
2022/03/13 10:06:07;;;;;;;6.45;4.75;;;15.70;99.90;;;;;;5073355;28;20021;-51
2022/03/13 10:08:34;;;;;;;5.85;5.07;;;15.60;99.90;;;;;;5073015;28;20387;-51
2022/03/13 10:11:02;;;;;;;5.43;4.75;;;15.50;99.90;;;;;;5071683;28;20033;-51
2022/03/13 10:13:42;;;;;;;6.63;5.07;;;15.50;99.90;;;;;;5070828;28;20024;-51
2022/03/13 10:16:15;;;;;;;6.40;5.10;;;15.20;99.90;;;;;;5073276;28;20063;-51
2022/03/13 10:18:41;;;;;;;6.55;5.45;;;15.30;99.90;;;;;;5073054;28;20033;-51
2022/03/13 10:21:10;;;;;;;7.80;5.20;;;15.30;99.90;;;;;;5072335;28;20067;-51
2022/03/13 10:23:36;;;;;;;6.07;5.30;;;15.20;99.90;;;;;;5072927;28;20021;-51
2022/03/13 10:26:02;;;;;;;6.40;5.10;;;15.40;99.90;;;;;;5072125;28;20078;-52
2022/03/13 10:28:31;;;;;;;5.72;5.00;;;15.80;99.90;;;;;;5072280;28;20048;-52
2022/03/13 10:30:59;;;;;;;7.82;4.85;;;15.80;99.90;;;;;;5072153;28;20143;-52
2022/03/13 10:33:53;;;;;;;6.25;4.25;;;15.90;99.90;;;;;;5072838;28;20086;-52
2022/03/13 10:36:37;;;;;;;6.63;4.65;;;16.00;99.90;;;;;;5066870;28;20041;-52
2022/03/13 10:39:10;;;;;;;4.50;3.92;;;16.00;99.90;;;;;;5072632;28;20035;-52
2022/03/13 10:41:45;;;;;;;4.60;3.80;;;16.30;99.90;;;;;;5073831;28;20024;-52
2022/03/13 10:44:21;;;;;;;6.57;3.95;;;16.10;99.10;;;;;;5074010;28;20035;-52
2022/03/13 10:46:56;;;;;;;5.22;4.30;;;16.10;99.60;;;;;;5072956;28;20024;-52
2022/03/13 10:49:48;;;;;;;4.95;4.10;;;16.20;99.70;;;;;;5072734;28;20123;-52
2022/03/13 10:52:26;;;;;;;5.68;4.40;;;16.50;99.20;;;;;;5068377;28;20256;-53
2022/03/13 10:55:15;;;;;;;6.53;5.07;;;16.20;99.20;;;;;;5072801;28;20386;-52
2022/03/13 10:57:48;;;;;;;5.20;4.28;;;16.00;99.60;;;;;;5072860;28;20021;-52
2022/03/13 11:00:16;;;;;;;5.78;4.35;;;15.80;99.20;;;;;;5071455;28;20105;-52
2022/03/13 11:02:42;;;;;;;5.15;4.22;;;15.70;99.90;;;;;;5073538;28;20129;-52
2022/03/13 11:05:07;;;;;;;6.03;4.30;;;16.10;98.80;;;;;;5072877;28;20044;-52
2022/03/13 11:07:34;;;;;;;5.82;4.32;;;16.20;99.20;;;;;;5072121;28;20045;-52
2022/03/13 11:10:03;;;;;;;4.75;3.92;;;16.40;98.60;;;;;;5072252;28;20033;-52
2022/03/13 11:12:28;;;;;;;4.32;3.92;;;16.40;98.60;;;;;;5071876;28;20078;-52
2022/03/13 11:15:00;;;;;;;4.43;3.65;;;16.90;97.90;;;;;;5071012;28;20021;-52
2022/03/13 11:17:31;;;;;;;4.60;3.17;;;17.20;97.00;;;;;;5071518;28;20478;-52
2022/03/13 11:19:59;;;;;;;7.07;4.05;;;17.20;97.30;;;;;;5071320;28;20032;-52
2022/03/13 11:22:26;;;;;;;5.18;4.60;;;17.10;97.20;;;;;;5070898;28;20029;-52
2022/03/13 11:24:55;;;;;;;4.85;3.55;;;16.90;97.60;;;;;;5070962;28;20432;-52
2022/03/13 11:27:24;;;;;;;5.72;4.53;;;16.90;97.70;;;;;;5071016;28;20020;-52
2022/03/13 11:29:53;;;;;;;4.90;4.13;;;16.90;97.80;;;;;;5070113;28;20062;-52
2022/03/13 11:32:32;;;;;;;4.43;3.75;;;16.70;97.50;;;;;;5071390;28;20036;-52
2022/03/13 11:35:18;;;;;;;5.43;3.78;;;16.50;98.40;;;;;;5071336;28;20059;-52
2022/03/13 11:38:05;;;;;;;5.97;3.75;;;16.40;98.00;;;;;;5071442;28;20439;-52
2022/03/13 11:40:36;;;;;;;4.32;3.80;;;16.20;98.10;;;;;;5071279;28;20024;-52
2022/03/13 11:43:32;;;;;;;4.80;4.20;;;16.20;98.00;;;;;;5071192;28;20020;-52
2022/03/13 11:46:00;;;;;;;4.82;4.25;;;16.50;98.40;;;;;;5054035;28;20401;-51
2022/03/13 11:48:25;;;;;;;4.47;4.00;;;16.80;97.90;;;;;;5070261;28;20028;-52
2022/03/13 11:51:03;;;;;;;5.10;3.70;;;16.70;97.60;;;;;;5070950;28;20035;-52
2022/03/13 11:53:40;;;;;;;5.55;4.50;;;16.40;97.70;;;;;;5071013;28;20536;-52
2022/03/13 11:56:09;;;;;;;5.97;4.35;;;16.30;98.10;;;;;;5086720;28;20024;-52
2022/03/13 11:58:42;;;;;;;4.88;4.38;;;16.30;98.10;;;;;;5071270;28;20032;-52
2022/03/13 12:01:32;;;;;;;7.05;3.92;;;16.30;98.60;;;;;;5071468;28;20094;-52
2022/03/13 12:04:03;;;;;;;6.32;4.30;;;16.60;98.00;;;;;;5070084;28;20036;-51
2022/03/13 12:06:40;;;;;;;4.22;3.60;;;16.80;98.20;;;;;;5070786;28;20048;-51
2022/03/13 12:09:08;;;;;;;4.88;4.07;;;16.70;97.10;;;;;;5070847;28;20033;-51
2022/03/13 12:11:39;;;;;;;5.20;4.25;;;16.90;97.20;;;;;;5070494;28;20107;-51
2022/03/13 12:14:07;;;;;;;4.53;4.07;;;17.20;96.90;;;;;;5069883;28;20090;-52
2022/03/13 12:16:35;;;;;;;5.32;4.55;;;17.40;96.80;;;;;;5068759;28;20228;-52
2022/03/13 12:19:01;;;;;;;4.85;4.35;;;17.60;96.90;;;;;;5070205;28;20054;-52
2022/03/13 12:21:27;;;;;;;6.63;4.60;;;17.90;96.30;;;;;;5069952;28;20104;-52
2022/03/13 12:23:53;;;;;;;4.93;4.07;;;18.50;95.90;;;;;;5069881;28;20107;-52
2022/03/13 12:26:22;;;;;;;4.97;3.80;;;18.70;94.70;;;;;;5069850;28;20025;-52
2022/03/13 12:28:54;;;;;;;5.65;4.95;;;18.50;94.40;;;;;;5070209;28;20009;-52
2022/03/13 12:31:19;;;;;;;5.33;4.40;;;18.10;95.20;;;;;;5069947;28;20439;-52
2022/03/13 12:33:47;;;;;;;6.93;4.90;;;17.80;95.80;;;;;;5070038;28;20263;-52
2022/03/13 12:36:13;;;;;;;4.70;4.13;;;17.70;96.00;;;;;;5069537;28;20032;-52
2022/03/13 12:38:43;;;;;;;4.70;4.20;;;17.80;95.60;;;;;;5070082;28;20444;-52
2022/03/13 12:41:10;;;;;;;4.68;4.22;;;18.20;95.50;;;;;;5068403;28;20051;-52
2022/03/13 12:43:52;;;;;;;4.20;3.80;;;18.50;95.10;;;;;;5069793;28;20029;-52
2022/03/13 12:46:27;;;;;;;5.53;4.85;;;17.90;94.60;;;;;;5069810;28;20032;-53
2022/03/13 12:48:56;;;;;;;4.72;4.32;;;17.40;95.40;;;;;;5070804;28;20112;-52